Terminal Aerodrome Forecast
Issued by NWS

Home | Current Version | Previous Version | Text Only | Print | Product List | Glossary On
Versions: 1 2 3 4 5 6 7 8 9 10 11 12 13 14 15 16 17 18 19 20 21 22 23 24 25 26 27 28 29 30
000
FTAK31 PAFG 222327
TAFAFA
TAF
PAFA 222327Z 2300/2406 04011G17KT P6SM VCSH BKN070 BKN100 BKN200
     FM230200 04010G15KT 6SM -SHRA BR FEW025 BKN050 OVC100
     FM230600 04012KT 6SM -RASN BR SCT015 BKN025 OVC035
     FM231200 24010KT 4SM -SN SCT010 OVC015
     FM231500 27012KT 2SM -SN SCT007 BKN010 OVC015
     FM232200 25007KT 4SM -RASN BR SCT010 BKN025 OVC050
     FM240200 25008KT 2SM -SN BR SCT010 OVC025=

USA.gov is the U.S. government's official web portal to all federal, state and local government web resources and services.